sensor_id;sensor_type;location;lat;lon;timestamp;pressure;altitude;pressure_sealevel;temperature;humidity
740;BME280;354;42.694;23.336;2023-04-06T00:00:25;95048.56;;;0.45;100.00
740;BME280;354;42.694;23.336;2023-04-06T00:02:51;95049.84;;;0.49;100.00
740;BME280;354;42.694;23.336;2023-04-06T00:05:18;95043.31;;;0.63;100.00
740;BME280;354;42.694;23.336;2023-04-06T00:07:43;95021.56;;;0.48;100.00
740;BME280;354;42.694;23.336;2023-04-06T00:10:09;95044.91;;;0.64;100.00
740;BME280;354;42.694;23.336;2023-04-06T00:12:34;95024.31;;;0.55;100.00
740;BME280;354;42.694;23.336;2023-04-06T00:15:00;95036.53;;;0.70;100.00
740;BME280;354;42.694;23.336;2023-04-06T00:17:26;95036.06;;;0.75;100.00
740;BME280;354;42.694;23.336;2023-04-06T00:19:52;95033.66;;;0.82;100.00
740;BME280;354;42.694;23.336;2023-04-06T00:22:17;95021.06;;;0.78;100.00
740;BME280;354;42.694;23.336;2023-04-06T00:24:43;95022.22;;;0.92;100.00
740;BME280;354;42.694;23.336;2023-04-06T00:27:08;95021.91;;;0.95;100.00
740;BME280;354;42.694;23.336;2023-04-06T00:29:33;95026.94;;;0.97;100.00
740;BME280;354;42.694;23.336;2023-04-06T00:31:59;95014.00;;;0.97;100.00
740;BME280;354;42.694;23.336;2023-04-06T00:34:24;95004.59;;;0.96;100.00
740;BME280;354;42.694;23.336;2023-04-06T00:36:50;95006.25;;;1.05;100.00
740;BME280;354;42.694;23.336;2023-04-06T00:39:15;94995.69;;;0.98;100.00
740;BME280;354;42.694;23.336;2023-04-06T00:41:46;95019.03;;;1.15;100.00
740;BME280;354;42.694;23.336;2023-04-06T00:44:11;95011.28;;;1.15;100.00
740;BME280;354;42.694;23.336;2023-04-06T00:46:37;95010.63;;;1.21;100.00
740;BME280;354;42.694;23.336;2023-04-06T00:49:02;95012.44;;;1.20;100.00
740;BME280;354;42.694;23.336;2023-04-06T00:51:27;94993.16;;;1.15;100.00
740;BME280;354;42.694;23.336;2023-04-06T00:53:53;95000.16;;;1.22;100.00
740;BME280;354;42.694;23.336;2023-04-06T00:56:19;95002.88;;;1.13;100.00
740;BME280;354;42.694;23.336;2023-04-06T00:58:46;95013.91;;;1.23;100.00
740;BME280;354;42.694;23.336;2023-04-06T01:01:11;94999.66;;;1.27;100.00
740;BME280;354;42.694;23.336;2023-04-06T01:03:37;94996.91;;;1.28;100.00
740;BME280;354;42.694;23.336;2023-04-06T01:06:02;95001.94;;;1.38;100.00
740;BME280;354;42.694;23.336;2023-04-06T01:08:28;94998.38;;;1.39;100.00
740;BME280;354;42.694;23.336;2023-04-06T01:10:54;94995.31;;;1.44;100.00
740;BME280;354;42.694;23.336;2023-04-06T01:13:19;94994.19;;;1.63;100.00
740;BME280;354;42.694;23.336;2023-04-06T01:15:46;94991.13;;;1.67;100.00
740;BME280;354;42.694;23.336;2023-04-06T01:18:11;94986.59;;;1.61;100.00
740;BME280;354;42.694;23.336;2023-04-06T01:20:37;94994.50;;;1.68;100.00
740;BME280;354;42.694;23.336;2023-04-06T01:23:02;94989.66;;;1.56;100.00
740;BME280;354;42.694;23.336;2023-04-06T01:25:28;94973.13;;;1.41;100.00
740;BME280;354;42.694;23.336;2023-04-06T01:27:53;95002.59;;;1.32;100.00
740;BME280;354;42.694;23.336;2023-04-06T01:30:19;94984.94;;;1.27;100.00
740;BME280;354;42.694;23.336;2023-04-06T01:32:44;94986.84;;;1.25;100.00
740;BME280;354;42.694;23.336;2023-04-06T01:35:10;94963.88;;;1.22;100.00
740;BME280;354;42.694;23.336;2023-04-06T01:37:36;94981.84;;;1.48;100.00
740;BME280;354;42.694;23.336;2023-04-06T01:40:01;94979.56;;;1.37;100.00
740;BME280;354;42.694;23.336;2023-04-06T01:42:27;94984.75;;;1.29;100.00
740;BME280;354;42.694;23.336;2023-04-06T01:44:53;94975.84;;;1.31;100.00
740;BME280;354;42.694;23.336;2023-04-06T01:47:18;94970.03;;;1.29;100.00
740;BME280;354;42.694;23.336;2023-04-06T01:49:43;94964.53;;;1.33;100.00
740;BME280;354;42.694;23.336;2023-04-06T01:52:09;94967.94;;;1.33;100.00
740;BME280;354;42.694;23.336;2023-04-06T01:54:34;94970.84;;;1.30;100.00
740;BME280;354;42.694;23.336;2023-04-06T01:57:00;94966.00;;;1.27;100.00
740;BME280;354;42.694;23.336;2023-04-06T01:59:25;94959.03;;;1.36;100.00
740;BME280;354;42.694;23.336;2023-04-06T02:01:51;94958.53;;;1.40;100.00
740;BME280;354;42.694;23.336;2023-04-06T02:04:16;94950.47;;;1.43;100.00
740;BME280;354;42.694;23.336;2023-04-06T02:06:41;94948.84;;;1.50;100.00
740;BME280;354;42.694;23.336;2023-04-06T02:09:07;94959.50;;;1.47;100.00
740;BME280;354;42.694;23.336;2023-04-06T02:11:32;94960.81;;;1.27;100.00
740;BME280;354;42.694;23.336;2023-04-06T02:13:58;94962.09;;;1.23;100.00
740;BME280;354;42.694;23.336;2023-04-06T02:16:25;94930.66;;;1.10;100.00
740;BME280;354;42.694;23.336;2023-04-06T02:18:50;94963.72;;;1.32;100.00
740;BME280;354;42.694;23.336;2023-04-06T02:21:16;94959.34;;;1.41;100.00
740;BME280;354;42.694;23.336;2023-04-06T02:23:45;94951.59;;;1.49;100.00
740;BME280;354;42.694;23.336;2023-04-06T02:26:11;94955.94;;;1.40;100.00
740;BME280;354;42.694;23.336;2023-04-06T02:28:36;94951.72;;;1.31;100.00
740;BME280;354;42.694;23.336;2023-04-06T02:31:01;94950.13;;;1.46;100.00
740;BME280;354;42.694;23.336;2023-04-06T02:33:27;94954.66;;;1.44;100.00
740;BME280;354;42.694;23.336;2023-04-06T02:35:52;94950.13;;;1.38;100.00
740;BME280;354;42.694;23.336;2023-04-06T02:38:18;94959.84;;;1.44;100.00
740;BME280;354;42.694;23.336;2023-04-06T02:40:43;94959.34;;;1.57;100.00
740;BME280;354;42.694;23.336;2023-04-06T02:43:08;94960.97;;;1.50;100.00
740;BME280;354;42.694;23.336;2023-04-06T02:45:34;94958.38;;;1.58;100.00
740;BME280;354;42.694;23.336;2023-04-06T02:47:59;94957.25;;;1.61;100.00
740;BME280;354;42.694;23.336;2023-04-06T02:50:25;94969.56;;;1.67;100.00
740;BME280;354;42.694;23.336;2023-04-06T02:52:52;94957.41;;;1.67;100.00
740;BME280;354;42.694;23.336;2023-04-06T02:55:17;94956.59;;;1.67;100.00
740;BME280;354;42.694;23.336;2023-04-06T02:57:43;94956.59;;;1.75;100.00
740;BME280;354;42.694;23.336;2023-04-06T03:00:09;94949.59;;;1.92;100.00
740;BME280;354;42.694;23.336;2023-04-06T03:02:34;94950.56;;;1.91;100.00
740;BME280;354;42.694;23.336;2023-04-06T03:05:00;94937.47;;;1.68;100.00
740;BME280;354;42.694;23.336;2023-04-06T03:07:25;94932.59;;;1.65;100.00
740;BME280;354;42.694;23.336;2023-04-06T03:09:51;94946.41;;;1.81;100.00
740;BME280;354;42.694;23.336;2023-04-06T03:12:16;94947.88;;;1.76;100.00
740;BME280;354;42.694;23.336;2023-04-06T03:14:41;94943.63;;;1.83;100.00
740;BME280;354;42.694;23.336;2023-04-06T03:17:07;94955.63;;;1.84;100.00
740;BME280;354;42.694;23.336;2023-04-06T03:19:32;94957.09;;;1.78;100.00
740;BME280;354;42.694;23.336;2023-04-06T03:21:57;94954.28;;;1.96;100.00
740;BME280;354;42.694;23.336;2023-04-06T03:24:23;94946.84;;;1.85;100.00
740;BME280;354;42.694;23.336;2023-04-06T03:26:48;94950.41;;;2.00;100.00
740;BME280;354;42.694;23.336;2023-04-06T03:29:14;94929.03;;;1.98;100.00
740;BME280;354;42.694;23.336;2023-04-06T03:31:40;94925.59;;;1.98;100.00
740;BME280;354;42.694;23.336;2023-04-06T03:34:05;94945.72;;;2.04;100.00
740;BME280;354;42.694;23.336;2023-04-06T03:36:31;94919.28;;;1.92;100.00
740;BME280;354;42.694;23.336;2023-04-06T03:38:56;94943.28;;;1.94;100.00
740;BME280;354;42.694;23.336;2023-04-06T03:41:21;94946.34;;;2.06;100.00
740;BME280;354;42.694;23.336;2023-04-06T03:43:47;94947.63;;;2.02;100.00
740;BME280;354;42.694;23.336;2023-04-06T03:46:12;94925.13;;;1.94;100.00
740;BME280;354;42.694;23.336;2023-04-06T03:48:38;94947.50;;;2.03;100.00
740;BME280;354;42.694;23.336;2023-04-06T03:51:03;94937.41;;;2.17;100.00
740;BME280;354;42.694;23.336;2023-04-06T03:53:29;94943.88;;;2.13;100.00
740;BME280;354;42.694;23.336;2023-04-06T03:55:54;94940.69;;;1.94;100.00
740;BME280;354;42.694;23.336;2023-04-06T03:58:20;94946.41;;;1.81;100.00
740;BME280;354;42.694;23.336;2023-04-06T04:00:45;94948.16;;;1.73;100.00
740;BME280;354;42.694;23.336;2023-04-06T04:03:10;94951.91;;;1.62;100.00
740;BME280;354;42.694;23.336;2023-04-06T04:05:36;94952.41;;;1.49;100.00
740;BME280;354;42.694;23.336;2023-04-06T04:08:01;94951.25;;;1.52;100.00
740;BME280;354;42.694;23.336;2023-04-06T04:10:27;94941.88;;;1.51;100.00
740;BME280;354;42.694;23.336;2023-04-06T04:12:52;94947.88;;;1.60;100.00
740;BME280;354;42.694;23.336;2023-04-06T04:15:17;94930.84;;;1.49;100.00
740;BME280;354;42.694;23.336;2023-04-06T04:17:43;94942.19;;;1.72;100.00
740;BME280;354;42.694;23.336;2023-04-06T04:20:12;94958.06;;;1.69;100.00
740;BME280;354;42.694;23.336;2023-04-06T04:22:37;94950.28;;;1.61;100.00
740;BME280;354;42.694;23.336;2023-04-06T04:25:02;94942.69;;;1.60;100.00
740;BME280;354;42.694;23.336;2023-04-06T04:27:28;94922.09;;;1.58;100.00
740;BME280;354;42.694;23.336;2023-04-06T04:29:53;94951.38;;;1.91;100.00
740;BME280;354;42.694;23.336;2023-04-06T04:32:19;94957.88;;;2.03;100.00
740;BME280;354;42.694;23.336;2023-04-06T04:34:44;94955.09;;;2.05;100.00
740;BME280;354;42.694;23.336;2023-04-06T04:37:10;94948.59;;;2.17;100.00
740;BME280;354;42.694;23.336;2023-04-06T04:39:35;94960.72;;;2.25;100.00
740;BME280;354;42.694;23.336;2023-04-06T04:42:01;94934.50;;;2.11;100.00
740;BME280;354;42.694;23.336;2023-04-06T04:44:26;94949.06;;;2.13;100.00
740;BME280;354;42.694;23.336;2023-04-06T04:46:51;94949.44;;;2.09;100.00
740;BME280;354;42.694;23.336;2023-04-06T04:49:17;94942.28;;;2.11;100.00
740;BME280;354;42.694;23.336;2023-04-06T04:51:42;94950.56;;;2.07;100.00
740;BME280;354;42.694;23.336;2023-04-06T04:54:08;94952.66;;;2.11;100.00
740;BME280;354;42.694;23.336;2023-04-06T04:56:33;94941.44;;;2.19;100.00
740;BME280;354;42.694;23.336;2023-04-06T04:58:58;94947.31;;;2.52;100.00
740;BME280;354;42.694;23.336;2023-04-06T05:01:24;94944.09;;;2.58;100.00
740;BME280;354;42.694;23.336;2023-04-06T05:03:50;94948.84;;;2.78;100.00
740;BME280;354;42.694;23.336;2023-04-06T05:06:15;94948.25;;;2.68;100.00
740;BME280;354;42.694;23.336;2023-04-06T05:08:41;94953.56;;;2.74;100.00
740;BME280;354;42.694;23.336;2023-04-06T05:11:08;94938.63;;;2.76;100.00
740;BME280;354;42.694;23.336;2023-04-06T05:13:33;94945.81;;;2.66;100.00
740;BME280;354;42.694;23.336;2023-04-06T05:15:59;94950.88;;;2.59;100.00
740;BME280;354;42.694;23.336;2023-04-06T05:18:25;94937.50;;;2.40;100.00
740;BME280;354;42.694;23.336;2023-04-06T05:20:50;94943.09;;;2.59;100.00
740;BME280;354;42.694;23.336;2023-04-06T05:23:16;94942.00;;;2.46;100.00
740;BME280;354;42.694;23.336;2023-04-06T05:25:42;94920.94;;;2.41;100.00
740;BME280;354;42.694;23.336;2023-04-06T05:28:07;94916.91;;;2.38;100.00
740;BME280;354;42.694;23.336;2023-04-06T05:30:33;94953.19;;;2.54;100.00
740;BME280;354;42.694;23.336;2023-04-06T05:33:00;94947.09;;;2.31;100.00
740;BME280;354;42.694;23.336;2023-04-06T05:35:26;94927.69;;;2.10;100.00
740;BME280;354;42.694;23.336;2023-04-06T05:37:51;94947.53;;;2.43;100.00
740;BME280;354;42.694;23.336;2023-04-06T05:40:16;94937.28;;;2.49;100.00
740;BME280;354;42.694;23.336;2023-04-06T05:42:42;94942.59;;;2.64;100.00
740;BME280;354;42.694;23.336;2023-04-06T05:45:09;94953.47;;;2.59;100.00
740;BME280;354;42.694;23.336;2023-04-06T05:47:42;94921.16;;;2.62;100.00
740;BME280;354;42.694;23.336;2023-04-06T05:50:09;94923.03;;;2.45;100.00
740;BME280;354;42.694;23.336;2023-04-06T05:52:35;94950.91;;;2.51;100.00
740;BME280;354;42.694;23.336;2023-04-06T05:55:00;94924.63;;;2.46;100.00
740;BME280;354;42.694;23.336;2023-04-06T05:57:26;94941.25;;;2.68;100.00
740;BME280;354;42.694;23.336;2023-04-06T05:59:51;94939.59;;;2.44;100.00
740;BME280;354;42.694;23.336;2023-04-06T06:02:17;94935.13;;;2.22;100.00
740;BME280;354;42.694;23.336;2023-04-06T06:04:42;94940.53;;;2.04;100.00
740;BME280;354;42.694;23.336;2023-04-06T06:07:08;94933.19;;;2.07;100.00
740;BME280;354;42.694;23.336;2023-04-06T06:09:33;94931.69;;;2.29;100.00
740;BME280;354;42.694;23.336;2023-04-06T06:11:59;94948.19;;;2.45;100.00
740;BME280;354;42.694;23.336;2023-04-06T06:14:25;94938.66;;;2.37;100.00
740;BME280;354;42.694;23.336;2023-04-06T06:16:53;94938.03;;;2.66;100.00
740;BME280;354;42.694;23.336;2023-04-06T06:19:19;94910.34;;;2.50;100.00
740;BME280;354;42.694;23.336;2023-04-06T06:21:44;94931.16;;;2.42;100.00
740;BME280;354;42.694;23.336;2023-04-06T06:24:10;94937.16;;;2.43;100.00
740;BME280;354;42.694;23.336;2023-04-06T06:26:35;94943.13;;;2.51;100.00
740;BME280;354;42.694;23.336;2023-04-06T06:29:02;94926.94;;;2.41;100.00
740;BME280;354;42.694;23.336;2023-04-06T06:31:28;94932.97;;;2.33;100.00
740;BME280;354;42.694;23.336;2023-04-06T06:33:53;94943.28;;;2.50;100.00
740;BME280;354;42.694;23.336;2023-04-06T06:36:19;94927.22;;;2.46;100.00
740;BME280;354;42.694;23.336;2023-04-06T06:38:44;94939.47;;;2.69;100.00
740;BME280;354;42.694;23.336;2023-04-06T06:41:10;94921.06;;;2.47;100.00
740;BME280;354;42.694;23.336;2023-04-06T06:43:36;94921.38;;;2.52;100.00
740;BME280;354;42.694;23.336;2023-04-06T06:46:02;94930.34;;;2.81;100.00
740;BME280;354;42.694;23.336;2023-04-06T06:48:27;94938.84;;;2.98;100.00
740;BME280;354;42.694;23.336;2023-04-06T06:50:52;94936.16;;;2.83;100.00
740;BME280;354;42.694;23.336;2023-04-06T06:53:19;94936.16;;;2.83;100.00
740;BME280;354;42.694;23.336;2023-04-06T06:55:44;94945.19;;;2.95;100.00
740;BME280;354;42.694;23.336;2023-04-06T06:58:10;94918.72;;;3.23;100.00
740;BME280;354;42.694;23.336;2023-04-06T07:00:35;94949.59;;;3.86;100.00
740;BME280;354;42.694;23.336;2023-04-06T07:03:01;94950.81;;;3.76;100.00
740;BME280;354;42.694;23.336;2023-04-06T07:05:26;94942.78;;;4.00;100.00
740;BME280;354;42.694;23.336;2023-04-06T07:07:52;94936.50;;;4.09;100.00
740;BME280;354;42.694;23.336;2023-04-06T07:10:17;94930.88;;;4.35;100.00
740;BME280;354;42.694;23.336;2023-04-06T07:12:43;94945.03;;;4.33;100.00
740;BME280;354;42.694;23.336;2023-04-06T07:15:08;94939.31;;;4.08;100.00
740;BME280;354;42.694;23.336;2023-04-06T07:17:34;94925.84;;;4.34;100.00
740;BME280;354;42.694;23.336;2023-04-06T07:20:00;94930.69;;;5.02;100.00
740;BME280;354;42.694;23.336;2023-04-06T07:22:25;94930.44;;;5.34;100.00
740;BME280;354;42.694;23.336;2023-04-06T07:24:50;94942.38;;;5.07;100.00
740;BME280;354;42.694;23.336;2023-04-06T07:27:16;94941.72;;;4.68;100.00
740;BME280;354;42.694;23.336;2023-04-06T07:29:42;94932.81;;;4.78;100.00
740;BME280;354;42.694;23.336;2023-04-06T07:32:08;94903.38;;;4.62;100.00
740;BME280;354;42.694;23.336;2023-04-06T07:34:33;94936.56;;;4.90;100.00
740;BME280;354;42.694;23.336;2023-04-06T07:36:59;94917.06;;;4.86;100.00
740;BME280;354;42.694;23.336;2023-04-06T07:39:26;94932.56;;;4.58;100.00
740;BME280;354;42.694;23.336;2023-04-06T07:41:52;94927.72;;;4.55;100.00
740;BME280;354;42.694;23.336;2023-04-06T07:44:17;94919.38;;;4.30;100.00
740;BME280;354;42.694;23.336;2023-04-06T07:46:43;94942.19;;;5.08;100.00
740;BME280;354;42.694;23.336;2023-04-06T07:49:08;94930.22;;;4.63;100.00
740;BME280;354;42.694;23.336;2023-04-06T07:51:38;94934.59;;;4.92;100.00
740;BME280;354;42.694;23.336;2023-04-06T07:54:04;94930.78;;;4.29;100.00
740;BME280;354;42.694;23.336;2023-04-06T07:56:30;94918.00;;;3.89;100.00
740;BME280;354;42.694;23.336;2023-04-06T07:58:56;94927.34;;;4.28;100.00
740;BME280;354;42.694;23.336;2023-04-06T08:01:22;94923.94;;;4.28;100.00
740;BME280;354;42.694;23.336;2023-04-06T08:03:47;94916.28;;;4.70;100.00
740;BME280;354;42.694;23.336;2023-04-06T08:06:13;94906.41;;;5.17;100.00
740;BME280;354;42.694;23.336;2023-04-06T08:08:39;94926.16;;;4.90;100.00
740;BME280;354;42.694;23.336;2023-04-06T08:11:04;94907.69;;;4.55;100.00
740;BME280;354;42.694;23.336;2023-04-06T08:13:30;94913.50;;;5.08;100.00
740;BME280;354;42.694;23.336;2023-04-06T08:15:55;94921.63;;;4.98;100.00
740;BME280;354;42.694;23.336;2023-04-06T08:18:22;94929.78;;;5.32;100.00
740;BME280;354;42.694;23.336;2023-04-06T08:20:47;94916.56;;;4.61;100.00
740;BME280;354;42.694;23.336;2023-04-06T08:23:14;94922.56;;;4.91;100.00
740;BME280;354;42.694;23.336;2023-04-06T08:25:41;94911.47;;;5.03;100.00
740;BME280;354;42.694;23.336;2023-04-06T08:28:07;94916.25;;;5.43;100.00
740;BME280;354;42.694;23.336;2023-04-06T08:30:33;94918.56;;;5.52;100.00
740;BME280;354;42.694;23.336;2023-04-06T08:32:59;94924.22;;;5.56;100.00
740;BME280;354;42.694;23.336;2023-04-06T08:35:26;94897.59;;;5.39;100.00
740;BME280;354;42.694;23.336;2023-04-06T08:37:51;94921.94;;;5.96;100.00
740;BME280;354;42.694;23.336;2023-04-06T08:40:17;94917.84;;;5.65;100.00
740;BME280;354;42.694;23.336;2023-04-06T08:42:55;94916.13;;;6.22;100.00
740;BME280;354;42.694;23.336;2023-04-06T08:45:21;94917.06;;;6.49;100.00
740;BME280;354;42.694;23.336;2023-04-06T08:47:49;94917.34;;;7.15;100.00
740;BME280;354;42.694;23.336;2023-04-06T08:50:16;94925.19;;;7.28;100.00
740;BME280;354;42.694;23.336;2023-04-06T08:52:43;94927.16;;;6.58;100.00
740;BME280;354;42.694;23.336;2023-04-06T08:55:09;94900.28;;;6.30;100.00
740;BME280;354;42.694;23.336;2023-04-06T08:57:36;94932.34;;;6.93;100.00
740;BME280;354;42.694;23.336;2023-04-06T09:00:01;94920.97;;;7.27;99.89
740;BME280;354;42.694;23.336;2023-04-06T09:02:27;94917.81;;;7.85;98.56
740;BME280;354;42.694;23.336;2023-04-06T09:04:53;94923.59;;;7.27;94.68
740;BME280;354;42.694;23.336;2023-04-06T09:07:20;94921.84;;;7.48;94.47
740;BME280;354;42.694;23.336;2023-04-06T09:09:46;94912.59;;;7.65;93.76
740;BME280;354;42.694;23.336;2023-04-06T09:12:27;94917.78;;;7.25;92.77
740;BME280;354;42.694;23.336;2023-04-06T09:14:53;94926.34;;;7.06;92.33
740;BME280;354;42.694;23.336;2023-04-06T09:17:29;94922.94;;;6.23;91.14
740;BME280;354;42.694;23.336;2023-04-06T09:20:00;94913.31;;;6.23;95.83
740;BME280;354;42.694;23.336;2023-04-06T09:22:37;94915.47;;;6.20;97.20
740;BME280;354;42.694;23.336;2023-04-06T09:25:04;94888.72;;;6.52;97.67
740;BME280;354;42.694;23.336;2023-04-06T09:27:34;94917.94;;;6.69;94.39
740;BME280;354;42.694;23.336;2023-04-06T09:30:04;94896.16;;;5.86;98.60
740;BME280;354;42.694;23.336;2023-04-06T09:32:31;94922.50;;;6.19;97.08
740;BME280;354;42.694;23.336;2023-04-06T09:35:08;94921.13;;;7.12;94.36
740;BME280;354;42.694;23.336;2023-04-06T09:37:34;94909.53;;;6.74;90.99
740;BME280;354;42.694;23.336;2023-04-06T09:40:05;94900.84;;;7.21;90.81
740;BME280;354;42.694;23.336;2023-04-06T09:42:31;94913.97;;;6.73;92.05
740;BME280;354;42.694;23.336;2023-04-06T09:44:57;94907.31;;;7.25;93.20
740;BME280;354;42.694;23.336;2023-04-06T09:47:23;94910.88;;;7.04;90.35
740;BME280;354;42.694;23.336;2023-04-06T09:49:55;94885.59;;;7.51;90.02
740;BME280;354;42.694;23.336;2023-04-06T09:52:21;94918.44;;;7.80;88.88
740;BME280;354;42.694;23.336;2023-04-06T09:54:50;94903.13;;;7.71;88.76
740;BME280;354;42.694;23.336;2023-04-06T09:57:29;94909.75;;;7.80;86.00
740;BME280;354;42.694;23.336;2023-04-06T10:00:07;94913.78;;;8.09;86.42
740;BME280;354;42.694;23.336;2023-04-06T10:02:50;94926.19;;;7.21;85.36
740;BME280;354;42.694;23.336;2023-04-06T10:05:41;94913.38;;;7.79;85.19
740;BME280;354;42.694;23.336;2023-04-06T10:08:09;94892.84;;;7.82;83.18
740;BME280;354;42.694;23.336;2023-04-06T10:10:35;94917.41;;;7.55;83.17
740;BME280;354;42.694;23.336;2023-04-06T10:13:02;94920.53;;;7.04;84.11
740;BME280;354;42.694;23.336;2023-04-06T10:15:28;94899.03;;;7.15;83.50
740;BME280;354;42.694;23.336;2023-04-06T10:17:58;94900.00;;;7.07;83.27
740;BME280;354;42.694;23.336;2023-04-06T10:20:29;94907.34;;;7.65;84.64
740;BME280;354;42.694;23.336;2023-04-06T10:23:01;94915.78;;;8.20;80.10
740;BME280;354;42.694;23.336;2023-04-06T10:25:31;94903.47;;;7.15;81.99
740;BME280;354;42.694;23.336;2023-04-06T10:28:07;94899.25;;;7.47;83.21
740;BME280;354;42.694;23.336;2023-04-06T10:30:41;94890.81;;;7.45;81.55
740;BME280;354;42.694;23.336;2023-04-06T10:33:18;94893.38;;;7.18;83.12
740;BME280;354;42.694;23.336;2023-04-06T10:35:45;94898.69;;;7.71;81.44
740;BME280;354;42.694;23.336;2023-04-06T10:38:10;94890.44;;;7.74;81.55
740;BME280;354;42.694;23.336;2023-04-06T10:40:40;94893.03;;;8.01;80.54
740;BME280;354;42.694;23.336;2023-04-06T10:43:12;94891.44;;;7.53;79.51
740;BME280;354;42.694;23.336;2023-04-06T10:45:38;94893.28;;;6.85;81.66
740;BME280;354;42.694;23.336;2023-04-06T10:48:17;94889.31;;;6.48;85.17
740;BME280;354;42.694;23.336;2023-04-06T10:50:44;94899.47;;;6.29;86.32
740;BME280;354;42.694;23.336;2023-04-06T10:53:10;94895.78;;;6.17;89.42
740;BME280;354;42.694;23.336;2023-04-06T10:55:39;94886.78;;;6.61;86.74
740;BME280;354;42.694;23.336;2023-04-06T10:58:07;94887.88;;;6.39;85.67
740;BME280;354;42.694;23.336;2023-04-06T11:00:32;94873.59;;;6.00;84.59
740;BME280;354;42.694;23.336;2023-04-06T11:03:01;94895.59;;;6.19;85.49
740;BME280;354;42.694;23.336;2023-04-06T11:05:27;94878.59;;;6.77;87.80
740;BME280;354;42.694;23.336;2023-04-06T11:07:52;94886.81;;;7.49;85.91
740;BME280;354;42.694;23.336;2023-04-06T11:10:22;94880.56;;;7.76;82.79
740;BME280;354;42.694;23.336;2023-04-06T11:12:53;94881.44;;;6.82;81.81
740;BME280;354;42.694;23.336;2023-04-06T11:15:18;94869.84;;;7.05;84.22
740;BME280;354;42.694;23.336;2023-04-06T11:17:44;94863.59;;;6.99;81.92
740;BME280;354;42.694;23.336;2023-04-06T11:20:11;94878.28;;;7.07;81.63
740;BME280;354;42.694;23.336;2023-04-06T11:22:48;94869.63;;;7.00;79.84
740;BME280;354;42.694;23.336;2023-04-06T11:25:13;94847.69;;;7.07;82.43
740;BME280;354;42.694;23.336;2023-04-06T11:27:39;94870.69;;;7.38;81.05
740;BME280;354;42.694;23.336;2023-04-06T11:30:07;94844.53;;;7.91;81.72
740;BME280;354;42.694;23.336;2023-04-06T11:32:40;94871.88;;;8.09;78.10
740;BME280;354;42.694;23.336;2023-04-06T11:35:06;94867.03;;;8.06;76.43
740;BME280;354;42.694;23.336;2023-04-06T11:37:32;94866.44;;;8.10;76.86
740;BME280;354;42.694;23.336;2023-04-06T11:39:58;94863.78;;;8.30;76.46
740;BME280;354;42.694;23.336;2023-04-06T11:42:25;94868.19;;;8.94;75.36
740;BME280;354;42.694;23.336;2023-04-06T11:44:53;94853.25;;;8.50;73.90
740;BME280;354;42.694;23.336;2023-04-06T11:47:19;94855.13;;;8.16;75.24
740;BME280;354;42.694;23.336;2023-04-06T11:49:45;94850.88;;;8.22;75.83
740;BME280;354;42.694;23.336;2023-04-06T11:52:20;94854.38;;;7.83;76.53
740;BME280;354;42.694;23.336;2023-04-06T11:54:47;94844.09;;;8.08;76.86
740;BME280;354;42.694;23.336;2023-04-06T11:57:12;94836.25;;;7.28;77.05
740;BME280;354;42.694;23.336;2023-04-06T11:59:38;94842.94;;;7.64;77.49
740;BME280;354;42.694;23.336;2023-04-06T12:02:04;94845.75;;;7.43;77.21
740;BME280;354;42.694;23.336;2023-04-06T12:04:30;94827.56;;;6.81;78.86
740;BME280;354;42.694;23.336;2023-04-06T12:06:57;94840.47;;;7.16;79.27
740;BME280;354;42.694;23.336;2023-04-06T12:09:23;94841.72;;;7.53;78.48
740;BME280;354;42.694;23.336;2023-04-06T12:11:48;94834.41;;;7.95;77.85
740;BME280;354;42.694;23.336;2023-04-06T12:14:13;94836.72;;;8.50;75.86
740;BME280;354;42.694;23.336;2023-04-06T12:16:40;94845.28;;;8.05;75.24
740;BME280;354;42.694;23.336;2023-04-06T12:19:06;94846.22;;;8.44;75.97
740;BME280;354;42.694;23.336;2023-04-06T12:21:32;94823.38;;;8.64;74.23
740;BME280;354;42.694;23.336;2023-04-06T12:23:58;94811.38;;;8.30;73.49
740;BME280;354;42.694;23.336;2023-04-06T12:26:25;94834.34;;;8.28;74.39
740;BME280;354;42.694;23.336;2023-04-06T12:28:50;94831.78;;;8.02;74.58
740;BME280;354;42.694;23.336;2023-04-06T12:31:20;94819.56;;;7.76;74.35
740;BME280;354;42.694;23.336;2023-04-06T12:33:48;94827.56;;;8.14;74.02
740;BME280;354;42.694;23.336;2023-04-06T12:36:18;94830.53;;;8.31;74.41
740;BME280;354;42.694;23.336;2023-04-06T12:38:47;94822.06;;;8.29;72.73
740;BME280;354;42.694;23.336;2023-04-06T12:41:13;94824.09;;;8.20;72.94
740;BME280;354;42.694;23.336;2023-04-06T12:43:42;94830.59;;;7.98;71.63
740;BME280;354;42.694;23.336;2023-04-06T12:46:08;94823.34;;;8.00;73.57
740;BME280;354;42.694;23.336;2023-04-06T12:48:34;94812.47;;;7.89;73.05
740;BME280;354;42.694;23.336;2023-04-06T12:51:02;94800.97;;;8.04;74.79
740;BME280;354;42.694;23.336;2023-04-06T12:53:27;94817.53;;;7.84;72.81
740;BME280;354;42.694;23.336;2023-04-06T12:55:54;94823.53;;;6.92;75.91
740;BME280;354;42.694;23.336;2023-04-06T12:58:20;94814.91;;;7.18;76.13
740;BME280;354;42.694;23.336;2023-04-06T13:00:47;94805.06;;;7.73;75.50
740;BME280;354;42.694;23.336;2023-04-06T13:03:12;94802.81;;;7.90;74.79
740;BME280;354;42.694;23.336;2023-04-06T13:05:45;94808.56;;;8.18;73.58
740;BME280;354;42.694;23.336;2023-04-06T13:08:11;94801.34;;;8.07;73.42
740;BME280;354;42.694;23.336;2023-04-06T13:10:37;94810.69;;;7.30;74.84
740;BME280;354;42.694;23.336;2023-04-06T13:13:03;94806.25;;;7.77;75.99
740;BME280;354;42.694;23.336;2023-04-06T13:15:28;94809.06;;;7.82;75.65
740;BME280;354;42.694;23.336;2023-04-06T13:17:53;94807.47;;;7.68;75.59
740;BME280;354;42.694;23.336;2023-04-06T13:20:19;94809.28;;;7.68;76.04
740;BME280;354;42.694;23.336;2023-04-06T13:22:44;94781.66;;;7.85;74.24
740;BME280;354;42.694;23.336;2023-04-06T13:25:10;94811.47;;;6.91;75.72
740;BME280;354;42.694;23.336;2023-04-06T13:27:35;94797.34;;;6.72;77.18
740;BME280;354;42.694;23.336;2023-04-06T13:30:02;94794.81;;;7.19;76.69
740;BME280;354;42.694;23.336;2023-04-06T13:32:28;94779.91;;;7.39;75.00